Milwaukee, WI (53219)

6:10 PM CDT on July 01, 2015 (GMT -0500)
Jans Embroidery | | Change Station
CLOSE
Current Station
Personal Weather Station
Location: West Allis, WI
Elevation: 738 ft
Nearby Weather Stations

Elev 738 ft 43.00 °N, 88.00 °W | Updated 6 seconds ago

Overcast
Overcast
55.3 °F
Feels Like 55.3 °F
N
0.0
Wind Variable Wind from NNE
Gusts 0.9 mph

Today
High -- | Low -- °F
--% Chance of Precip.
Yesterday
High -- | Low -- °F
Precip. -- in
5:16 AM 8:34 PM
Full, 100% visible
Pressure 30.00 in
Visibility 10.0 miles
Clouds Mostly Cloudy 800 ft
Overcast 12000 ft
Dew Point 45 °F
Humidity 69%
Rainfall 0.00 in
Snow Depth Not available.
UV 1 out of 12
Pollen 3.60 out of 12
Air Quality Not available.
Flu Activity Not available.
METAR KMKE 012252Z 05006KT 10SM BKN008 OVC120 13/10 A3000 RMK AO2 SLP159 T01280100

More Conditions Fewer Conditions

Pressure 30.00 in
Visibility 10.0 miles
Clouds Mostly Cloudy 800 ft
Overcast 12000 ft
Dew Point 45 °F
Humidity 69%
Rainfall 0.00 in
Snow Depth Not available.
UV 1 out of 12
Pollen 3.60 out of 12
Air Quality Not available.
Flu Activity Not available.
METAR KMKE 012252Z 05006KT 10SM BKN008 OVC120 13/10 A3000 RMK AO2 SLP159 T01280100

More Conditions Fewer Conditions

10-Day Weather Forecast

×

Almanac

Astronomy

Jul. 01, 2015 Rise Set
Actual Time
Civil Twilight
Nautical Twilight
Astronomical Twilight
Moon
Length of Visible Light
Length of Day
Tomorrow will be .
, % of the Moon is Illuminated

Today's Extremes

State Highs State Lows

Community

WunderPhotos

Upload Photos

1,834,335 photos uploaded!

WunderBlogs® & News

Nearby

Air Quality

  Air Quality AQ Index Pollutant
Not available.

Snow Depth

Station Depth Elevation

Earthquake Activity

City Distance Mag. Time & Date
Minimum magnitude displayed is 2.5.

Coastal Water Temperatures

Place Temperature

Stations

Nearby Weather Stations

Station Location Temp. Windchill Dew Point Humidity Wind Precip. Elev Updated Type